Bayview, Texas
Current Conditions -  °F | °C
As of 8:53 AM on Friday 24 Oct 2014 (Local Time) from KPIL Reporting Station
Haze Haze  
Wind Chill: 75°   Ceiling: Unl
Heat Index: 75°   Visibility: 6mi
Dew Point: 69°   Wind: 5mph
Humidity: 82%   Direction: 340°NNW
Pressure: 30.11"   Gusts: NA
Location:  26.1063°N, 97.4763°W
Report Text: KPIL 241353Z AUTO 34004KT 6SM HZ CLR 24/21 A3011 RMK AO2 SLP196 T02390206
Loading
Personal Weather Stations






























Interactive Weather Map
Tropical Storm Tracking
New forecast layout! Learn more

10-Day Weather Forecast

Advertisements
Track Severe Weather on mobile